Time;durP1;ratioP1;P1;durP2;ratioP2;P2;SDS_P1;SDS_P2;PMS_P1;PMS_P2;Temp;Humidity;BMP_temperature;BMP_pressure;BME280_temperature;BME280_humidity;BME280_pressure;Samples;Min_cycle;Max_cycle;Signal;HPM_P1;HPM_P2
2023/07/15 00:01:48;;;;;;;5.35;4.88;;;21.10;99.90;;;;;;5091795;28;20695;-75
2023/07/15 00:04:14;;;;;;;5.20;4.85;;;21.00;99.90;;;;;;5091891;28;20166;-76
2023/07/15 00:06:40;;;;;;;5.00;4.55;;;21.00;99.90;;;;;;5073920;28;20173;-75
2023/07/15 00:09:06;;;;;;;4.30;3.90;;;20.90;99.90;;;;;;5085752;28;20227;-75
2023/07/15 00:11:38;;;;;;;6.43;5.82;;;20.90;99.90;;;;;;5113053;28;20164;-75
2023/07/15 00:14:14;;;;;;;5.10;4.55;;;20.90;99.90;;;;;;5112390;28;20321;-76
2023/07/15 00:16:39;;;;;;;4.18;3.88;;;20.80;99.90;;;;;;5094680;28;20171;-76
2023/07/15 00:19:05;;;;;;;5.15;4.75;;;20.80;99.90;;;;;;5112976;28;20200;-75
2023/07/15 00:21:31;;;;;;;5.20;4.72;;;20.70;99.90;;;;;;5094636;28;20635;-75
2023/07/15 00:23:58;;;;;;;5.13;4.70;;;20.70;99.90;;;;;;5112510;28;20181;-75
2023/07/15 00:26:32;;;;;;;6.93;4.78;;;20.70;99.90;;;;;;5112991;28;20201;-75
2023/07/15 00:28:58;;;;;;;4.80;4.30;;;20.60;99.90;;;;;;5112514;28;20282;-76
2023/07/15 00:31:24;;;;;;;4.78;4.25;;;20.60;99.90;;;;;;5112816;28;20206;-75
2023/07/15 00:33:50;;;;;;;4.55;3.90;;;20.50;99.90;;;;;;5093850;28;20352;-75
2023/07/15 00:36:16;;;;;;;5.10;4.70;;;20.50;99.90;;;;;;5104741;28;20251;-75
2023/07/15 00:38:43;;;;;;;5.53;4.97;;;20.50;99.90;;;;;;5091951;28;20166;-75
2023/07/15 00:41:23;;;;;;;7.95;5.32;;;20.40;99.90;;;;;;5092269;28;20180;-76
2023/07/15 00:44:01;;;;;;;6.65;5.18;;;20.40;99.90;;;;;;5073376;28;20651;-75
2023/07/15 00:46:48;;;;;;;5.57;3.63;;;20.30;99.90;;;;;;5092302;28;20173;-75
2023/07/15 00:49:21;;;;;;;3.90;3.60;;;20.30;99.90;;;;;;5091880;28;20531;-75
2023/07/15 00:52:09;;;;;;;5.00;4.35;;;20.30;99.90;;;;;;5091933;28;20545;-76
2023/07/15 00:54:45;;;;;;;4.82;4.30;;;20.30;99.90;;;;;;5091706;28;20161;-76
2023/07/15 00:57:14;;;;;;;4.50;4.10;;;20.20;99.90;;;;;;5092039;28;20664;-75
2023/07/15 00:59:41;;;;;;;4.38;3.97;;;20.20;99.90;;;;;;5091723;28;20246;-76
2023/07/15 01:02:09;;;;;;;4.00;3.70;;;20.20;99.90;;;;;;5092094;28;20201;-75
2023/07/15 01:04:35;;;;;;;5.65;4.68;;;20.20;99.90;;;;;;5073613;28;20272;-76
2023/07/15 01:07:01;;;;;;;7.60;4.82;;;20.20;99.90;;;;;;5073514;28;20252;-76
2023/07/15 01:09:27;;;;;;;5.00;4.50;;;20.20;99.90;;;;;;5073759;28;20220;-76
2023/07/15 01:11:54;;;;;;;4.55;4.10;;;20.20;99.90;;;;;;5091491;28;20169;-76
2023/07/15 01:14:19;;;;;;;4.35;4.05;;;20.20;99.90;;;;;;5098944;28;20221;-75
2023/07/15 01:16:47;;;;;;;4.55;4.05;;;20.20;99.90;;;;;;5111745;28;20247;-75
2023/07/15 01:19:19;;;;;;;4.85;4.28;;;20.20;99.90;;;;;;5093297;28;20200;-74
2023/07/15 01:21:50;;;;;;;5.07;4.50;;;20.10;99.90;;;;;;5111674;28;20164;-73
2023/07/15 01:24:20;;;;;;;4.00;3.60;;;20.10;99.90;;;;;;5111617;28;20428;-73
2023/07/15 01:26:46;;;;;;;4.57;4.20;;;20.10;99.90;;;;;;5111725;28;20559;-73
2023/07/15 01:29:15;;;;;;;4.53;4.13;;;20.10;99.90;;;;;;5111611;28;20213;-75
2023/07/15 01:31:42;;;;;;;5.97;4.05;;;20.10;99.90;;;;;;5109090;28;20172;-75
2023/07/15 01:34:08;;;;;;;4.45;4.05;;;20.10;99.90;;;;;;5072830;28;20166;-73
2023/07/15 01:36:33;;;;;;;4.40;4.10;;;20.20;99.90;;;;;;5091474;28;20161;-73
2023/07/15 01:38:59;;;;;;;5.13;4.30;;;20.10;99.90;;;;;;5091017;28;20189;-74
2023/07/15 01:41:25;;;;;;;6.57;4.40;;;20.10;99.90;;;;;;5091330;28;20176;-76
2023/07/15 01:43:50;;;;;;;7.38;4.55;;;20.10;99.90;;;;;;5094435;28;20194;-74
2023/07/15 01:46:17;;;;;;;5.30;4.80;;;20.20;99.90;;;;;;5093279;28;20220;-75
2023/07/15 01:48:43;;;;;;;4.53;4.22;;;20.20;99.90;;;;;;5111267;28;20200;-73
2023/07/15 01:51:08;;;;;;;7.25;5.63;;;20.20;99.90;;;;;;5111517;28;20246;-74
2023/07/15 01:53:34;;;;;;;5.15;4.50;;;20.30;99.90;;;;;;5111401;28;20160;-73
2023/07/15 01:55:59;;;;;;;6.85;4.78;;;20.30;99.90;;;;;;5116263;28;20169;-75
2023/07/15 01:58:25;;;;;;;5.13;4.35;;;20.30;99.90;;;;;;5099983;28;20317;-73
2023/07/15 02:00:51;;;;;;;4.85;4.45;;;20.30;99.90;;;;;;5087745;28;20193;-74
2023/07/15 02:03:16;;;;;;;4.70;4.30;;;20.30;99.90;;;;;;5097501;28;20177;-74
2023/07/15 02:05:42;;;;;;;4.22;3.92;;;20.20;99.90;;;;;;5097627;28;20176;-73
2023/07/15 02:08:08;;;;;;;4.82;4.43;;;20.20;99.90;;;;;;5097568;28;20574;-73
2023/07/15 02:10:33;;;;;;;5.88;4.72;;;20.20;99.90;;;;;;5097651;28;20201;-73
2023/07/15 02:12:59;;;;;;;4.32;4.07;;;20.10;99.90;;;;;;5097349;28;20276;-74
2023/07/15 02:15:25;;;;;;;5.78;5.38;;;20.10;99.90;;;;;;5097888;28;20520;-74
2023/07/15 02:17:51;;;;;;;5.22;4.72;;;20.10;99.90;;;;;;5097575;28;20492;-73
2023/07/15 02:20:16;;;;;;;6.93;6.03;;;20.10;99.90;;;;;;5097560;28;20718;-73
2023/07/15 02:22:42;;;;;;;5.50;5.00;;;20.10;99.90;;;;;;5097262;28;20173;-74
2023/07/15 02:25:08;;;;;;;6.10;5.60;;;20.10;99.90;;;;;;5097646;28;20639;-74
2023/07/15 02:27:34;;;;;;;5.65;5.15;;;20.10;99.90;;;;;;5098145;28;20177;-75
2023/07/15 02:29:59;;;;;;;6.28;5.88;;;20.20;99.90;;;;;;5117794;28;20232;-74
2023/07/15 02:32:38;;;;;;;7.38;6.88;;;20.20;99.90;;;;;;5117855;28;20651;-75
2023/07/15 02:35:08;;;;;;;7.47;5.63;;;20.20;99.90;;;;;;5117895;28;20581;-74
2023/07/15 02:37:38;;;;;;;4.90;4.57;;;20.10;99.90;;;;;;5117540;28;20631;-73
2023/07/15 02:40:04;;;;;;;4.55;4.25;;;20.10;99.90;;;;;;5117723;28;20574;-75
2023/07/15 02:42:34;;;;;;;6.38;5.78;;;20.00;99.90;;;;;;5099053;28;20256;-74
2023/07/15 02:45:03;;;;;;;5.20;4.90;;;20.00;99.90;;;;;;5117721;28;20200;-73
2023/07/15 02:47:29;;;;;;;5.50;4.57;;;19.90;99.90;;;;;;5115174;28;20157;-73
2023/07/15 02:49:56;;;;;;;4.65;3.97;;;19.90;99.90;;;;;;5097227;28;20751;-73
2023/07/15 02:52:23;;;;;;;5.43;5.13;;;19.80;99.90;;;;;;5097243;28;20205;-74
2023/07/15 02:54:49;;;;;;;4.65;4.25;;;19.70;99.90;;;;;;5079478;28;20173;-73
2023/07/15 02:57:14;;;;;;;4.80;4.40;;;19.60;99.90;;;;;;5112612;28;20225;-74
2023/07/15 02:59:40;;;;;;;4.13;3.83;;;19.50;99.90;;;;;;5117832;28;20204;-73
2023/07/15 03:02:06;;;;;;;4.32;3.92;;;19.50;99.90;;;;;;5117964;28;20310;-73
2023/07/15 03:04:32;;;;;;;7.35;4.68;;;19.40;99.90;;;;;;5117823;28;20169;-73
2023/07/15 03:07:00;;;;;;;4.25;3.83;;;19.30;99.90;;;;;;5113743;28;20531;-73
2023/07/15 03:09:25;;;;;;;4.07;3.80;;;19.30;99.90;;;;;;5114771;28;20209;-73
2023/07/15 03:11:51;;;;;;;8.05;4.28;;;19.30;99.90;;;;;;5114700;28;20651;-73
2023/07/15 03:14:17;;;;;;;6.05;5.65;;;19.20;99.90;;;;;;5114692;28;20350;-73
2023/07/15 03:16:42;;;;;;;4.22;4.00;;;19.20;99.90;;;;;;5114684;28;20251;-73
2023/07/15 03:19:08;;;;;;;6.95;6.50;;;19.20;99.90;;;;;;5115060;28;20185;-73
2023/07/15 03:21:33;;;;;;;3.78;3.50;;;19.20;99.90;;;;;;5096370;28;20172;-73
2023/07/15 03:23:59;;;;;;;4.10;3.80;;;19.20;99.90;;;;;;5110048;28;20457;-73
2023/07/15 03:26:24;;;;;;;4.65;4.20;;;19.20;99.90;;;;;;5094044;28;20189;-73
2023/07/15 03:28:50;;;;;;;4.40;4.10;;;19.20;99.90;;;;;;5093906;28;20325;-73
2023/07/15 03:31:16;;;;;;;4.07;3.78;;;19.20;99.90;;;;;;5093991;28;20173;-74
2023/07/15 03:33:41;;;;;;;7.07;4.05;;;19.10;99.90;;;;;;5093540;28;20253;-73
2023/07/15 03:36:07;;;;;;;4.72;3.63;;;19.10;99.90;;;;;;5093773;28;20168;-73
2023/07/15 03:38:32;;;;;;;4.03;3.67;;;19.10;99.90;;;;;;5112566;28;20222;-73
2023/07/15 03:40:58;;;;;;;4.65;3.80;;;19.00;99.90;;;;;;5114126;28;20183;-73
2023/07/15 03:43:24;;;;;;;5.17;4.83;;;19.10;99.90;;;;;;5114025;28;20165;-74
2023/07/15 03:45:49;;;;;;;4.32;4.03;;;19.10;99.90;;;;;;5095697;28;20289;-73
2023/07/15 03:48:15;;;;;;;4.77;4.40;;;19.10;99.90;;;;;;5113848;28;20210;-73
2023/07/15 03:50:44;;;;;;;4.72;4.32;;;19.20;99.90;;;;;;5114062;28;20265;-73
2023/07/15 03:53:09;;;;;;;4.18;3.75;;;19.20;99.90;;;;;;5099932;28;20170;-73
2023/07/15 03:55:37;;;;;;;4.83;4.27;;;19.20;99.90;;;;;;5093546;28;20191;-73
2023/07/15 03:58:03;;;;;;;4.23;3.93;;;19.20;99.90;;;;;;5093556;28;20570;-73
2023/07/15 04:00:29;;;;;;;4.95;4.45;;;19.20;99.90;;;;;;5075221;28;20193;-73
2023/07/15 04:02:55;;;;;;;3.55;3.35;;;19.30;99.90;;;;;;5093049;28;20176;-73
2023/07/15 04:05:20;;;;;;;3.80;3.50;;;19.30;99.90;;;;;;5075098;28;20216;-73
2023/07/15 04:07:47;;;;;;;4.13;3.83;;;19.30;99.90;;;;;;5093218;28;20180;-73
2023/07/15 04:10:13;;;;;;;4.82;4.53;;;19.40;99.90;;;;;;5093026;28;20201;-73
2023/07/15 04:12:38;;;;;;;4.00;3.70;;;19.50;99.90;;;;;;5092805;28;20166;-73
2023/07/15 04:15:05;;;;;;;4.28;3.97;;;19.50;99.90;;;;;;5093072;28;20686;-73
2023/07/15 04:17:31;;;;;;;4.25;3.95;;;19.60;99.90;;;;;;5092136;28;20177;-73
2023/07/15 04:19:56;;;;;;;4.70;4.15;;;19.70;99.90;;;;;;5095562;28;20588;-73
2023/07/15 04:22:23;;;;;;;4.13;3.83;;;19.70;99.90;;;;;;5113066;28;20172;-73
2023/07/15 04:24:48;;;;;;;3.47;3.25;;;19.80;99.90;;;;;;5113289;28;20168;-73
2023/07/15 04:27:14;;;;;;;3.90;3.60;;;19.90;99.90;;;;;;5113094;28;20185;-73
2023/07/15 04:29:40;;;;;;;5.55;3.60;;;19.90;99.90;;;;;;5113224;28;20674;-74
2023/07/15 04:32:05;;;;;;;4.65;4.30;;;20.00;99.90;;;;;;5113452;28;20251;-74
2023/07/15 04:34:31;;;;;;;4.05;3.75;;;20.00;99.90;;;;;;5113144;28;20562;-74
2023/07/15 04:36:56;;;;;;;4.28;3.70;;;20.10;99.90;;;;;;5113040;28;20169;-73
2023/07/15 04:39:23;;;;;;;4.97;4.50;;;20.20;99.90;;;;;;5113106;28;20188;-74
2023/07/15 04:41:49;;;;;;;3.80;3.50;;;20.30;99.90;;;;;;5112816;28;20171;-74
2023/07/15 04:44:15;;;;;;;4.53;4.07;;;20.40;99.90;;;;;;5112725;28;20176;-73
2023/07/15 04:46:40;;;;;;;4.50;3.80;;;20.50;99.90;;;;;;5113072;28;20168;-73
2023/07/15 04:49:06;;;;;;;6.18;3.53;;;20.70;99.90;;;;;;5100070;28;20237;-73
2023/07/15 04:51:31;;;;;;;4.90;4.35;;;20.70;99.90;;;;;;5092538;28;20170;-74
2023/07/15 04:53:57;;;;;;;6.22;4.18;;;20.90;99.90;;;;;;5091966;28;20219;-73
2023/07/15 04:56:23;;;;;;;3.28;3.08;;;20.90;99.90;;;;;;5092461;28;20176;-73
2023/07/15 04:58:48;;;;;;;9.25;3.65;;;21.10;99.90;;;;;;5092180;28;20185;-73
2023/07/15 05:01:14;;;;;;;3.65;3.45;;;21.20;99.90;;;;;;5092361;28;20198;-73
2023/07/15 05:03:40;;;;;;;5.53;3.90;;;21.40;99.90;;;;;;5091864;28;20675;-73
2023/07/15 05:06:06;;;;;;;4.22;3.45;;;21.60;99.90;;;;;;5092193;28;20173;-73
2023/07/15 05:08:31;;;;;;;3.53;3.33;;;21.90;99.90;;;;;;5092018;28;20193;-73
2023/07/15 05:10:57;;;;;;;3.72;3.42;;;22.10;99.90;;;;;;5091987;28;20614;-73
2023/07/15 05:13:24;;;;;;;5.63;3.70;;;22.20;99.90;;;;;;5091836;28;20201;-73
2023/07/15 05:15:49;;;;;;;4.07;3.60;;;22.50;99.90;;;;;;5096535;28;20173;-73
2023/07/15 05:18:15;;;;;;;3.75;3.47;;;22.70;99.90;;;;;;5112225;28;20169;-73
2023/07/15 05:20:41;;;;;;;4.85;3.10;;;22.90;99.90;;;;;;5112409;28;20235;-73
2023/07/15 05:23:07;;;;;;;3.63;3.33;;;23.30;99.90;;;;;;5112021;28;20173;-73
2023/07/15 05:25:33;;;;;;;3.67;3.38;;;23.60;99.90;;;;;;5112310;28;20196;-73
2023/07/15 05:27:59;;;;;;;3.55;3.25;;;23.80;99.90;;;;;;5112057;28;20204;-73
2023/07/15 05:30:24;;;;;;;3.72;3.35;;;24.00;99.90;;;;;;5110764;28;20193;-73
2023/07/15 05:32:50;;;;;;;3.35;3.13;;;24.10;99.90;;;;;;5111836;28;20168;-74
2023/07/15 05:35:16;;;;;;;2.95;2.75;;;24.20;99.90;;;;;;5092181;28;20176;-74
2023/07/15 05:37:42;;;;;;;3.40;3.10;;;24.20;99.90;;;;;;5112023;28;20558;-74
2023/07/15 05:40:10;;;;;;;3.88;3.42;;;24.30;99.90;;;;;;5111701;28;20233;-74
2023/07/15 05:42:43;;;;;;;3.53;3.22;;;24.40;99.90;;;;;;5093205;28;20193;-74
2023/07/15 05:45:10;;;;;;;4.15;3.38;;;24.50;99.90;;;;;;5096050;28;20169;-74
2023/07/15 05:47:36;;;;;;;6.10;2.95;;;24.70;99.90;;;;;;5091421;28;20172;-74
2023/07/15 05:50:02;;;;;;;3.17;2.90;;;25.10;99.90;;;;;;5091206;28;20201;-75
2023/07/15 05:52:28;;;;;;;3.47;3.10;;;25.40;99.90;;;;;;5091209;28;20524;-74
2023/07/15 05:54:54;;;;;;;3.40;3.20;;;25.90;99.90;;;;;;5091209;28;20238;-75
2023/07/15 05:57:19;;;;;;;2.97;2.78;;;26.30;99.90;;;;;;5073375;28;20218;-74
2023/07/15 05:59:45;;;;;;;3.47;3.17;;;26.80;99.90;;;;;;5091010;28;20189;-74
2023/07/15 06:02:11;;;;;;;2.90;2.60;;;27.10;99.90;;;;;;5091507;28;20212;-72
2023/07/15 06:04:36;;;;;;;3.13;2.88;;;27.40;99.90;;;;;;5090892;28;20199;-72
2023/07/15 06:07:02;;;;;;;4.20;3.70;;;27.60;99.90;;;;;;5091284;28;20234;-74
2023/07/15 06:09:28;;;;;;;3.45;3.25;;;27.70;99.90;;;;;;5090508;28;20209;-74
2023/07/15 06:11:53;;;;;;;3.53;3.30;;;27.70;99.40;;;;;;5094418;28;20200;-74
2023/07/15 06:14:19;;;;;;;3.10;2.70;;;27.90;99.90;;;;;;5110982;28;20197;-72
2023/07/15 06:16:45;;;;;;;4.25;2.85;;;28.10;99.90;;;;;;5111540;28;20529;-74
2023/07/15 06:19:10;;;;;;;3.95;2.72;;;28.30;99.10;;;;;;5111474;28;20551;-74
2023/07/15 06:21:37;;;;;;;6.50;3.38;;;28.50;98.90;;;;;;5111241;28;20249;-75
2023/07/15 06:24:03;;;;;;;3.35;3.15;;;28.80;99.40;;;;;;5111276;28;20651;-74
2023/07/15 06:26:29;;;;;;;3.20;3.00;;;29.10;98.40;;;;;;5111641;28;20628;-74
2023/07/15 06:28:54;;;;;;;3.50;3.13;;;29.30;97.30;;;;;;5111144;28;20208;-74
2023/07/15 06:31:20;;;;;;;2.88;2.67;;;29.40;97.70;;;;;;5111602;28;20631;-74
2023/07/15 06:33:47;;;;;;;3.15;2.95;;;29.40;97.40;;;;;;5110850;28;20165;-74
2023/07/15 06:36:13;;;;;;;3.00;2.78;;;29.30;97.30;;;;;;5111436;28;20176;-74
2023/07/15 06:38:39;;;;;;;3.65;3.45;;;29.40;97.50;;;;;;5110929;28;20165;-74
2023/07/15 06:41:05;;;;;;;3.92;3.00;;;29.30;96.80;;;;;;5098385;28;20263;-74
2023/07/15 06:43:31;;;;;;;3.00;2.80;;;29.20;96.70;;;;;;5075791;28;20265;-73
2023/07/15 06:45:57;;;;;;;4.55;3.22;;;29.00;96.60;;;;;;5094763;28;20610;-74
2023/07/15 06:48:22;;;;;;;4.22;3.20;;;28.70;96.70;;;;;;5076336;28;20193;-73
2023/07/15 06:50:48;;;;;;;3.58;3.25;;;28.50;97.40;;;;;;5094822;28;20532;-74
2023/07/15 06:53:14;;;;;;;4.40;4.10;;;28.20;97.40;;;;;;5094527;28;20673;-74
2023/07/15 06:55:39;;;;;;;4.28;3.63;;;28.00;98.20;;;;;;5094839;28;20178;-73
2023/07/15 06:58:06;;;;;;;6.75;3.28;;;27.90;98.90;;;;;;5094543;28;20550;-73
2023/07/15 07:00:32;;;;;;;3.20;2.95;;;27.70;98.70;;;;;;5103102;28;20219;-73
2023/07/15 07:02:59;;;;;;;2.95;2.75;;;27.60;98.90;;;;;;5114718;28;20248;-74
2023/07/15 07:05:25;;;;;;;4.90;2.78;;;27.40;99.20;;;;;;5114867;28;20245;-74
2023/07/15 07:07:51;;;;;;;3.35;3.08;;;27.20;99.50;;;;;;5114648;28;20195;-74
2023/07/15 07:10:17;;;;;;;3.03;2.83;;;27.00;99.90;;;;;;5115292;28;20221;-74
2023/07/15 07:12:43;;;;;;;4.85;3.88;;;26.80;99.90;;;;;;5095673;28;20252;-74
2023/07/15 07:15:09;;;;;;;4.32;3.25;;;26.60;99.90;;;;;;5076299;28;20268;-74
2023/07/15 07:17:36;;;;;;;3.70;3.30;;;26.40;99.90;;;;;;5094353;28;20197;-74
2023/07/15 07:20:03;;;;;;;5.13;3.97;;;26.30;99.90;;;;;;5093947;28;20262;-75
2023/07/15 07:22:29;;;;;;;3.88;3.10;;;26.20;99.90;;;;;;5095710;28;20219;-75
2023/07/15 07:24:54;;;;;;;3.22;3.03;;;26.10;99.90;;;;;;5114076;28;20184;-74
2023/07/15 07:27:20;;;;;;;3.47;2.83;;;26.20;99.90;;;;;;5110619;28;20169;-74
2023/07/15 07:29:46;;;;;;;3.40;3.20;;;26.10;99.90;;;;;;5093847;28;20284;-74
2023/07/15 07:32:11;;;;;;;5.55;3.88;;;26.10;99.90;;;;;;5093969;28;20180;-74
2023/07/15 07:34:37;;;;;;;5.15;3.50;;;26.10;99.90;;;;;;5093648;28;20161;-74
2023/07/15 07:37:03;;;;;;;3.65;3.33;;;26.10;99.90;;;;;;5093905;28;20660;-74
2023/07/15 07:39:29;;;;;;;5.53;3.53;;;26.10;99.90;;;;;;5093920;28;20577;-74
2023/07/15 07:41:55;;;;;;;3.78;3.38;;;26.10;99.90;;;;;;5093587;28;20178;-74
2023/07/15 07:44:21;;;;;;;5.95;4.55;;;26.00;99.90;;;;;;5093369;28;20553;-73
2023/07/15 07:46:46;;;;;;;3.28;3.08;;;26.00;99.90;;;;;;5093596;28;20173;-74
2023/07/15 07:49:12;;;;;;;5.03;3.67;;;26.00;99.90;;;;;;5093629;28;20285;-74
2023/07/15 07:51:38;;;;;;;3.60;3.30;;;26.00;99.90;;;;;;5093148;28;20170;-73
2023/07/15 07:54:03;;;;;;;3.75;3.45;;;26.00;99.90;;;;;;5093133;28;20238;-73
2023/07/15 07:56:29;;;;;;;3.33;3.00;;;26.00;99.90;;;;;;5093811;28;20533;-74
2023/07/15 07:58:57;;;;;;;3.70;3.40;;;26.00;99.90;;;;;;5093364;28;20197;-73
2023/07/15 08:01:23;;;;;;;6.18;3.40;;;26.10;99.90;;;;;;5095982;28;20193;-72
2023/07/15 08:03:49;;;;;;;3.65;3.35;;;26.20;99.90;;;;;;5113576;28;20556;-73
2023/07/15 08:06:15;;;;;;;3.10;2.85;;;26.30;99.90;;;;;;5113554;28;20183;-72
2023/07/15 08:08:41;;;;;;;3.53;3.22;;;26.30;99.90;;;;;;5113402;28;20279;-74
2023/07/15 08:11:07;;;;;;;3.33;3.10;;;26.30;99.90;;;;;;5113889;28;20221;-74
2023/07/15 08:13:33;;;;;;;3.28;3.08;;;26.30;99.90;;;;;;5113470;28;20173;-73
2023/07/15 08:15:59;;;;;;;4.20;3.90;;;26.20;99.90;;;;;;5113489;28;20180;-73
2023/07/15 08:18:25;;;;;;;3.63;3.35;;;26.00;99.90;;;;;;5111612;28;20546;-72
2023/07/15 08:20:51;;;;;;;3.85;3.50;;;25.90;99.90;;;;;;5113330;28;20192;-73
2023/07/15 08:23:17;;;;;;;3.17;2.97;;;25.80;99.90;;;;;;5102069;28;20187;-71
2023/07/15 08:25:42;;;;;;;3.40;3.20;;;25.70;99.90;;;;;;5113289;28;20198;-73
2023/07/15 08:28:08;;;;;;;6.13;5.63;;;25.50;99.90;;;;;;5113227;28;20727;-72
2023/07/15 08:30:36;;;;;;;8.15;4.20;;;25.40;99.90;;;;;;5112894;28;20241;-69
2023/07/15 08:33:05;;;;;;;7.72;2.85;;;25.10;99.90;;;;;;5113002;28;20639;-71
2023/07/15 08:35:35;;;;;;;3.95;3.65;;;24.80;99.90;;;;;;5113130;28;20169;-73
2023/07/15 08:38:01;;;;;;;3.45;3.25;;;24.40;99.90;;;;;;5094580;28;20259;-73
2023/07/15 08:40:27;;;;;;;5.75;5.45;;;24.00;99.90;;;;;;5112889;28;20275;-73
2023/07/15 08:42:53;;;;;;;5.80;5.30;;;23.30;99.90;;;;;;5112802;28;20530;-71
2023/07/15 08:45:19;;;;;;;5.82;4.93;;;22.60;99.90;;;;;;5094752;28;20565;-72
2023/07/15 08:47:46;;;;;;;6.93;4.75;;;22.00;99.90;;;;;;5097092;28;20260;-71
2023/07/15 08:50:15;;;;;;;5.28;4.63;;;21.50;99.90;;;;;;5094410;28;20668;-74
2023/07/15 08:52:42;;;;;;;5.68;4.55;;;21.10;99.90;;;;;;5106752;28;20166;-73
2023/07/15 08:55:08;;;;;;;5.57;5.13;;;20.80;99.90;;;;;;5092439;28;20534;-76
2023/07/15 08:57:34;;;;;;;7.30;5.70;;;20.60;99.90;;;;;;5092476;28;20161;-74
2023/07/15 09:00:03;;;;;;;7.97;4.93;;;20.40;99.90;;;;;;5092058;28;20196;-74
2023/07/15 09:02:29;;;;;;;8.63;5.28;;;20.30;99.90;;;;;;5091881;28;20174;-75
2023/07/15 09:04:54;;;;;;;6.32;5.53;;;20.20;99.90;;;;;;5091021;28;20656;-76
2023/07/15 09:07:27;;;;;;;10.05;5.40;;;20.20;99.90;;;;;;5092074;28;20172;-75
2023/07/15 09:09:53;;;;;;;5.50;5.00;;;20.10;99.90;;;;;;5091705;28;20201;-76
2023/07/15 09:12:22;;;;;;;5.60;4.75;;;20.00;99.90;;;;;;5091699;28;20166;-77
2023/07/15 09:14:48;;;;;;;4.88;4.47;;;20.00;99.90;;;;;;5073660;28;20197;-77
2023/07/15 09:17:20;;;;;;;6.28;5.32;;;20.00;99.90;;;;;;5107851;28;20207;-76
2023/07/15 09:19:46;;;;;;;5.45;4.82;;;20.00;99.90;;;;;;5112149;28;20241;-76
2023/07/15 09:22:12;;;;;;;5.47;4.97;;;20.00;99.90;;;;;;5112399;28;20207;-77
2023/07/15 09:24:38;;;;;;;5.22;4.82;;;19.90;99.90;;;;;;5112367;28;20628;-76
2023/07/15 09:27:05;;;;;;;5.97;5.47;;;19.90;99.90;;;;;;5112663;28;20187;-76
2023/07/15 09:29:32;;;;;;;9.07;5.70;;;19.80;99.90;;;;;;5111990;28;20196;-77
2023/07/15 09:31:58;;;;;;;8.30;5.40;;;19.80;99.90;;;;;;5111910;28;20477;-77
2023/07/15 09:34:24;;;;;;;6.03;5.43;;;19.80;99.90;;;;;;5112380;28;20177;-77
2023/07/15 09:36:53;;;;;;;6.90;5.40;;;19.80;99.90;;;;;;5112498;28;20161;-77
2023/07/15 09:39:22;;;;;;;6.28;5.47;;;19.80;99.90;;;;;;5112527;28;20240;-76
2023/07/15 09:42:07;;;;;;;6.80;5.97;;;19.80;99.90;;;;;;5094304;28;20181;-77
2023/07/15 09:44:41;;;;;;;6.57;5.87;;;19.80;99.90;;;;;;5112033;28;20169;-77
2023/07/15 09:47:07;;;;;;;6.80;5.70;;;19.90;99.90;;;;;;5093858;28;20185;-77
2023/07/15 09:49:34;;;;;;;9.23;5.83;;;19.90;99.90;;;;;;5111991;28;20206;-77
2023/07/15 09:52:03;;;;;;;6.57;5.80;;;20.00;99.90;;;;;;5112148;28;20184;-77
2023/07/15 09:54:31;;;;;;;7.30;6.03;;;20.10;99.90;;;;;;5111591;28;20176;-76
2023/07/15 09:57:02;;;;;;;7.15;5.97;;;20.10;99.90;;;;;;5111430;28;20248;-76
2023/07/15 09:59:34;;;;;;;8.05;6.30;;;20.10;99.90;;;;;;5111700;28;20191;-76
2023/07/15 10:02:05;;;;;;;7.88;6.47;;;20.20;99.90;;;;;;5111512;28;20208;-76
2023/07/15 10:04:43;;;;;;;7.25;6.55;;;20.30;99.90;;;;;;5093624;28;20579;-77
2023/07/15 10:07:09;;;;;;;7.88;6.95;;;20.40;99.90;;;;;;5111693;28;20522;-76
2023/07/15 10:09:36;;;;;;;9.68;6.53;;;20.50;99.90;;;;;;5093158;28;20583;-75
2023/07/15 10:12:02;;;;;;;7.65;6.93;;;20.50;99.90;;;;;;5109640;28;20173;-76
2023/07/15 10:14:31;;;;;;;8.40;7.53;;;20.60;99.90;;;;;;5072759;28;20176;-76
2023/07/15 10:17:15;;;;;;;7.30;6.65;;;20.70;99.90;;;;;;5075917;28;20545;-76
2023/07/15 10:19:49;;;;;;;7.32;6.63;;;20.70;99.90;;;;;;5095130;28;20213;-75
2023/07/15 10:22:18;;;;;;;8.57;6.55;;;20.70;99.90;;;;;;5095275;28;20170;-75
2023/07/15 10:24:54;;;;;;;7.72;6.72;;;20.70;99.90;;;;;;5094741;28;20173;-75
2023/07/15 10:27:20;;;;;;;7.95;7.18;;;20.80;99.90;;;;;;5095231;28;20601;-76
2023/07/15 10:29:45;;;;;;;7.57;6.78;;;20.90;99.90;;;;;;5094755;28;20288;-76
2023/07/15 10:32:15;;;;;;;7.40;6.50;;;21.10;99.90;;;;;;5095218;28;20165;-76
2023/07/15 10:34:47;;;;;;;11.13;7.15;;;21.10;99.90;;;;;;5094777;28;20166;-76
2023/07/15 10:37:14;;;;;;;7.65;6.85;;;21.20;99.90;;;;;;5095227;28;20170;-76
2023/07/15 10:39:40;;;;;;;10.63;6.20;;;21.20;99.90;;;;;;5094815;28;20246;-75
2023/07/15 10:42:11;;;;;;;7.47;6.75;;;21.10;99.90;;;;;;5113168;28;20185;-75
2023/07/15 10:44:44;;;;;;;8.70;6.95;;;21.00;99.90;;;;;;5114598;28;20169;-76
2023/07/15 10:47:10;;;;;;;7.55;6.88;;;20.90;99.90;;;;;;5115100;28;20177;-76
2023/07/15 10:49:36;;;;;;;10.75;6.65;;;20.90;99.90;;;;;;5115077;28;20635;-76
2023/07/15 10:52:05;;;;;;;7.80;7.10;;;20.80;99.90;;;;;;5114790;28;20204;-75
2023/07/15 10:54:34;;;;;;;8.07;7.30;;;20.80;99.90;;;;;;5114741;28;20678;-76
2023/07/15 10:57:10;;;;;;;8.10;6.68;;;20.80;99.90;;;;;;5114813;28;20256;-76
2023/07/15 10:59:44;;;;;;;7.30;6.70;;;20.90;99.90;;;;;;5096496;28;20196;-75
2023/07/15 11:02:11;;;;;;;7.75;6.95;;;21.10;99.90;;;;;;5114825;28;20169;-75
2023/07/15 11:04:38;;;;;;;10.00;6.75;;;21.30;99.90;;;;;;5114768;28;20644;-76
2023/07/15 11:07:08;;;;;;;7.35;6.65;;;21.60;99.90;;;;;;5114465;28;20177;-76
2023/07/15 11:09:38;;;;;;;7.30;6.68;;;21.80;99.90;;;;;;5100372;28;20244;-75
2023/07/15 11:12:09;;;;;;;8.57;6.30;;;21.90;99.90;;;;;;5094165;28;20585;-76
2023/07/15 11:14:42;;;;;;;6.70;6.10;;;21.80;99.90;;;;;;5093939;28;20174;-76
2023/07/15 11:17:09;;;;;;;7.40;6.35;;;22.00;99.90;;;;;;5094431;28;20170;-76
2023/07/15 11:19:34;;;;;;;7.40;5.95;;;22.40;99.90;;;;;;5076132;28;20342;-76
2023/07/15 11:22:05;;;;;;;6.03;5.30;;;22.60;99.90;;;;;;5094200;28;20858;-76
2023/07/15 11:24:31;;;;;;;5.60;5.00;;;22.70;99.90;;;;;;5093909;28;20169;-76
2023/07/15 11:26:59;;;;;;;5.80;5.20;;;22.70;99.90;;;;;;5092882;28;20604;-76
2023/07/15 11:29:26;;;;;;;7.20;5.30;;;22.80;99.90;;;;;;5093984;28;20247;-75
2023/07/15 11:31:56;;;;;;;6.05;5.55;;;23.10;99.90;;;;;;5094012;28;20177;-74
2023/07/15 11:34:23;;;;;;;5.40;4.78;;;23.10;99.90;;;;;;5075562;28;20174;-75
2023/07/15 11:36:51;;;;;;;7.40;5.35;;;23.00;99.90;;;;;;5100906;28;20173;-76
2023/07/15 11:39:17;;;;;;;9.70;5.80;;;23.10;99.90;;;;;;5114141;28;20664;-74
2023/07/15 11:41:44;;;;;;;5.47;4.95;;;23.40;99.90;;;;;;5114191;28;20612;-74
2023/07/15 11:44:12;;;;;;;5.28;4.88;;;23.80;99.90;;;;;;5095352;28;20198;-75
2023/07/15 11:46:39;;;;;;;4.60;4.30;;;24.00;99.90;;;;;;5114023;28;20237;-74
2023/07/15 11:49:05;;;;;;;5.10;4.70;;;24.20;99.90;;;;;;5114204;28;20231;-74
2023/07/15 11:51:32;;;;;;;4.63;4.22;;;24.30;99.90;;;;;;5114236;28;20169;-74
2023/07/15 11:53:58;;;;;;;4.72;4.32;;;24.30;99.90;;;;;;5095146;28;20229;-74
2023/07/15 11:56:41;;;;;;;5.22;4.72;;;24.40;99.90;;;;;;5113986;28;20200;-74
2023/07/15 11:59:31;;;;;;;4.63;4.32;;;24.50;99.90;;;;;;5095648;28;20292;-74
2023/07/15 12:01:58;;;;;;;5.68;5.20;;;24.50;99.90;;;;;;5113844;28;20180;-75
2023/07/15 12:04:28;;;;;;;5.43;4.90;;;24.40;99.90;;;;;;5113499;28;20570;-74
2023/07/15 12:06:54;;;;;;;4.72;4.32;;;24.30;99.90;;;;;;5113310;28;20200;-74
2023/07/15 12:09:21;;;;;;;5.22;4.70;;;24.10;99.90;;;;;;5079782;28;20201;-75
2023/07/15 12:11:47;;;;;;;4.95;4.63;;;24.00;99.90;;;;;;5093204;28;20165;-76
2023/07/15 12:14:15;;;;;;;5.93;5.35;;;23.90;99.90;;;;;;5092831;28;20484;-75
2023/07/15 12:16:41;;;;;;;5.68;4.93;;;23.80;99.90;;;;;;5093090;28;20165;-74
2023/07/15 12:19:17;;;;;;;5.03;4.60;;;23.60;99.90;;;;;;5093137;28;20185;-75
2023/07/15 12:21:43;;;;;;;6.22;5.20;;;23.50;99.90;;;;;;5093008;28;20165;-75
2023/07/15 12:24:08;;;;;;;5.50;5.00;;;23.40;99.90;;;;;;5092603;28;20204;-74
2023/07/15 12:26:34;;;;;;;5.80;5.07;;;23.30;99.90;;;;;;5092914;28;20174;-74
2023/07/15 12:29:00;;;;;;;5.35;4.85;;;23.30;99.90;;;;;;5074520;28;20209;-74
2023/07/15 12:31:26;;;;;;;5.28;4.78;;;23.30;99.90;;;;;;5092991;28;20166;-75
2023/07/15 12:33:51;;;;;;;5.10;4.70;;;23.30;99.90;;;;;;5092471;28;20173;-74
2023/07/15 12:36:18;;;;;;;5.57;5.00;;;23.40;99.90;;;;;;5093274;28;20182;-73
2023/07/15 12:38:44;;;;;;;6.05;5.28;;;23.40;99.90;;;;;;5092282;28;20181;-73
2023/07/15 12:41:10;;;;;;;5.43;4.80;;;23.40;99.90;;;;;;5092800;28;20172;-74
2023/07/15 12:43:38;;;;;;;5.82;5.35;;;23.30;99.90;;;;;;5092349;28;20177;-75
2023/07/15 12:46:04;;;;;;;5.78;5.10;;;23.30;99.90;;;;;;5092554;28;20259;-74